createdAt,value
2022-10-14T00:01:10.393Z,12.50
2022-10-14T00:03:39.614Z,12.63
2022-10-14T00:06:08.600Z,12.73
2022-10-14T00:08:36.382Z,13.50
2022-10-14T00:11:07.845Z,13.27
2022-10-14T00:13:36.177Z,12.60
2022-10-14T00:16:07.179Z,12.80
2022-10-14T00:18:34.884Z,13.33
2022-10-14T00:21:03.506Z,14.00
2022-10-14T00:23:31.400Z,15.23
2022-10-14T00:25:59.146Z,15.17
2022-10-14T00:28:26.955Z,14.63
2022-10-14T00:30:55.941Z,14.23
2022-10-14T00:33:25.692Z,14.60
2022-10-14T00:35:57.739Z,15.13
2022-10-14T00:38:25.543Z,15.13
2022-10-14T00:40:53.857Z,14.90
2022-10-14T00:43:22.306Z,15.50
2022-10-14T00:45:50.092Z,14.93
2022-10-14T00:48:19.070Z,16.33
2022-10-14T00:50:51.616Z,15.73
2022-10-14T00:53:19.465Z,15.13
2022-10-14T00:55:47.537Z,16.73
2022-10-14T00:58:15.741Z,17.20
2022-10-14T01:00:43.917Z,17.00
2022-10-14T01:03:19.919Z,16.97
2022-10-14T01:05:54.182Z,18.40
2022-10-14T01:08:28.546Z,17.67
2022-10-14T01:11:05.102Z,18.00
2022-10-14T01:13:35.135Z,17.70
2022-10-14T01:16:22.131Z,18.57
2022-10-14T01:19:06.503Z,18.97
2022-10-14T01:21:39.910Z,18.97
2022-10-14T01:24:42.485Z,18.37
2022-10-14T01:27:35.700Z,18.07
2022-10-14T01:30:17.547Z,18.37
2022-10-14T01:33:00.430Z,17.67
2022-10-14T01:35:37.442Z,18.63
2022-10-14T01:38:09.797Z,18.47
2022-10-14T01:40:42.741Z,17.63
2022-10-14T01:43:13.375Z,18.20
2022-10-14T01:45:45.552Z,19.00
2022-10-14T01:48:16.031Z,19.57
2022-10-14T01:50:47.160Z,17.53
2022-10-14T01:53:19.002Z,19.50
2022-10-14T01:55:49.015Z,18.97
2022-10-14T01:58:18.786Z,18.63
2022-10-14T02:00:48.880Z,19.10
2022-10-14T02:03:16.626Z,17.73
2022-10-14T02:05:48.182Z,20.10
2022-10-14T02:08:26.077Z,19.50
2022-10-14T02:11:06.825Z,18.37
2022-10-14T02:13:54.478Z,18.67
2022-10-14T02:16:33.861Z,19.13
2022-10-14T02:19:06.594Z,18.77
2022-10-14T02:21:39.369Z,19.33
2022-10-14T02:24:11.888Z,17.23
2022-10-14T02:26:41.591Z,19.23
2022-10-14T02:29:09.658Z,18.87
2022-10-14T02:31:40.818Z,18.47
2022-10-14T02:34:13.508Z,19.07
2022-10-14T02:36:42.853Z,18.60
2022-10-14T02:39:14.650Z,18.47
2022-10-14T02:41:42.590Z,18.63
2022-10-14T02:44:10.330Z,18.63
2022-10-14T02:46:41.061Z,17.57
2022-10-14T02:49:08.784Z,17.63
2022-10-14T02:51:36.529Z,17.87
2022-10-14T02:54:04.426Z,17.40
2022-10-14T02:56:32.212Z,17.50
2022-10-14T02:58:59.965Z,17.03
2022-10-14T03:01:27.739Z,16.27
2022-10-14T03:03:56.822Z,16.97
2022-10-14T03:06:24.769Z,16.43
2022-10-14T03:08:52.619Z,18.50
2022-10-14T03:11:20.357Z,16.47
2022-10-14T03:13:48.066Z,16.77
2022-10-14T03:16:15.837Z,18.67
2022-10-14T03:18:43.542Z,17.13
2022-10-14T03:21:12.669Z,18.40
2022-10-14T03:23:40.405Z,17.57
2022-10-14T03:26:13.076Z,17.00
2022-10-14T03:28:41.729Z,16.20
2022-10-14T03:31:09.720Z,17.50
2022-10-14T03:33:37.445Z,17.50
2022-10-14T03:36:05.612Z,17.63
2022-10-14T03:38:35.207Z,18.00
2022-10-14T03:41:02.959Z,19.17
2022-10-14T03:43:30.746Z,18.40
2022-10-14T03:45:58.510Z,18.63
2022-10-14T03:48:26.262Z,19.37
2022-10-14T03:50:54.023Z,19.30
2022-10-14T03:53:21.739Z,18.67
2022-10-14T03:55:50.853Z,16.30
2022-10-14T03:58:19.114Z,18.23
2022-10-14T04:00:46.802Z,18.47
2022-10-14T04:03:14.512Z,17.87
2022-10-14T04:05:42.258Z,19.57
2022-10-14T04:08:10.101Z,17.93
2022-10-14T04:10:37.860Z,17.97
2022-10-14T04:13:06.947Z,18.20
2022-10-14T04:15:36.527Z,17.33
2022-10-14T04:18:04.682Z,20.03
2022-10-14T04:20:33.301Z,17.30
2022-10-14T04:23:01.239Z,20.53
2022-10-14T04:25:28.991Z,19.07
2022-10-14T04:27:56.762Z,19.20
2022-10-14T04:30:25.870Z,20.13
2022-10-14T04:32:53.623Z,18.97
2022-10-14T04:35:21.356Z,18.80
2022-10-14T04:37:49.078Z,19.53
2022-10-14T04:40:16.977Z,19.70
2022-10-14T04:42:44.683Z,19.90
2022-10-14T04:45:12.450Z,18.50
2022-10-14T04:47:46.166Z,19.27
2022-10-14T04:50:16.281Z,19.30
2022-10-14T04:52:44.000Z,18.93
2022-10-14T04:55:12.126Z,19.13
2022-10-14T04:57:43.144Z,19.63
2022-10-14T05:00:12.518Z,19.33
2022-10-14T05:02:41.623Z,19.03
2022-10-14T05:05:10.465Z,19.70
2022-10-14T05:07:38.423Z,18.17
2022-10-14T05:10:06.896Z,19.03
2022-10-14T05:12:34.676Z,19.23
2022-10-14T05:15:03.389Z,18.63
2022-10-14T05:17:31.148Z,19.10
2022-10-14T05:20:00.414Z,19.20
2022-10-14T05:22:28.204Z,20.17
2022-10-14T05:24:55.923Z,20.13
2022-10-14T05:27:23.949Z,19.97
2022-10-14T05:29:51.689Z,19.53
2022-10-14T05:32:19.734Z,19.20
2022-10-14T05:34:47.878Z,19.97
2022-10-14T05:37:16.959Z,18.43
2022-10-14T05:39:44.652Z,18.43
2022-10-14T05:42:12.371Z,18.43
2022-10-14T05:44:40.123Z,18.03
2022-10-14T05:47:07.849Z,19.80
2022-10-14T05:49:35.510Z,20.10
2022-10-14T05:52:03.307Z,20.50
2022-10-14T05:54:32.392Z,19.20
2022-10-14T05:57:00.099Z,20.47
2022-10-14T05:59:29.647Z,19.13
2022-10-14T06:01:57.571Z,21.40
2022-10-14T06:04:25.269Z,18.53
2022-10-14T06:06:53.107Z,20.87
2022-10-14T06:09:21.375Z,21.23
2022-10-14T06:11:50.715Z,20.63
2022-10-14T06:14:18.607Z,21.00
2022-10-14T06:16:46.341Z,22.00
2022-10-14T06:19:14.203Z,20.50
2022-10-14T06:21:41.876Z,21.03
2022-10-14T06:24:09.755Z,20.50
2022-10-14T06:26:37.906Z,21.50
2022-10-14T06:29:07.009Z,21.17
2022-10-14T06:31:35.083Z,21.20
2022-10-14T06:34:06.070Z,20.63
2022-10-14T06:36:33.853Z,20.47
2022-10-14T06:39:01.669Z,19.53
2022-10-14T06:41:29.435Z,20.70
2022-10-14T06:43:57.175Z,20.03
2022-10-14T06:46:26.401Z,20.43
2022-10-14T06:48:54.250Z,19.70
2022-10-14T06:51:21.939Z,20.83
2022-10-14T06:53:49.622Z,20.27
2022-10-14T06:56:18.047Z,20.03
2022-10-14T06:58:45.788Z,20.67
2022-10-14T07:01:13.553Z,21.60
2022-10-14T07:03:42.658Z,22.33
2022-10-14T07:06:10.719Z,21.60
2022-10-14T07:08:38.435Z,22.70
2022-10-14T07:11:07.139Z,22.43
2022-10-14T07:13:35.238Z,23.40
2022-10-14T07:16:03.295Z,22.67
2022-10-14T07:18:31.139Z,22.73
2022-10-14T07:21:03.001Z,23.50
2022-10-14T07:23:30.729Z,25.17
2022-10-14T07:25:58.603Z,24.23
2022-10-14T07:28:26.634Z,23.57
2022-10-14T07:30:59.322Z,24.07
2022-10-14T07:33:27.200Z,24.23
2022-10-14T07:35:55.001Z,25.60
2022-10-14T07:38:24.078Z,24.40
2022-10-14T07:41:03.413Z,24.43
2022-10-14T07:43:32.278Z,26.43
2022-10-14T07:46:02.659Z,26.00
2022-10-14T07:48:45.357Z,25.77
2022-10-14T07:51:20.054Z,26.07
2022-10-14T07:53:50.109Z,27.60
2022-10-14T07:56:17.838Z,27.10
2022-10-14T07:58:46.367Z,27.50
2022-10-14T08:01:15.519Z,27.30
2022-10-14T08:03:44.362Z,26.80
2022-10-14T08:06:13.012Z,26.00
2022-10-14T08:08:41.931Z,28.00
2022-10-14T08:11:13.279Z,28.03
2022-10-14T08:13:45.063Z,24.83
2022-10-14T08:16:16.145Z,25.20
2022-10-14T08:18:44.239Z,26.53
2022-10-14T08:21:12.525Z,22.87
2022-10-14T08:23:40.533Z,26.73
2022-10-14T08:26:19.682Z,22.60
2022-10-14T08:28:47.518Z,23.83
2022-10-14T08:31:15.352Z,21.97
2022-10-14T08:33:43.123Z,23.53
2022-10-14T08:36:11.078Z,22.80
2022-10-14T08:38:38.773Z,20.80
2022-10-14T08:41:24.919Z,18.90
2022-10-14T08:44:00.205Z,19.27
2022-10-14T08:46:32.024Z,17.43
2022-10-14T08:49:04.484Z,17.43
2022-10-14T08:51:33.347Z,18.80
2022-10-14T08:54:09.458Z,17.57
2022-10-14T08:56:39.195Z,16.17
2022-10-14T08:59:11.379Z,14.87
2022-10-14T09:01:49.601Z,15.20
2022-10-14T09:04:17.886Z,15.07
2022-10-14T09:06:47.785Z,13.13
2022-10-14T09:09:21.819Z,13.27
2022-10-14T09:11:57.892Z,13.53
2022-10-14T09:14:27.830Z,12.77
2022-10-14T09:16:59.312Z,12.60
2022-10-14T09:19:32.654Z,12.73
2022-10-14T09:22:02.266Z,11.00
2022-10-14T09:24:35.399Z,10.67
2022-10-14T09:27:08.197Z,10.90
2022-10-14T09:29:44.001Z,10.50
2022-10-14T09:32:17.091Z,9.60
2022-10-14T09:34:48.786Z,9.23
2022-10-14T09:37:26.337Z,8.90
2022-10-14T09:39:57.033Z,9.33
2022-10-14T09:42:32.280Z,8.57
2022-10-14T09:45:12.263Z,6.80
2022-10-14T09:47:45.972Z,7.23
2022-10-14T09:50:23.517Z,6.60
2022-10-14T09:52:54.203Z,7.47
2022-10-14T09:55:24.371Z,7.43
2022-10-14T09:58:09.412Z,6.67
2022-10-14T10:00:38.686Z,6.67
2022-10-14T10:03:07.957Z,6.53
2022-10-14T10:05:37.308Z,5.93
2022-10-14T10:08:18.023Z,4.97
2022-10-14T10:11:03.734Z,3.80
2022-10-14T10:13:43.229Z,3.97
2022-10-14T10:16:22.207Z,4.30
2022-10-14T10:18:50.717Z,4.33
2022-10-14T10:21:21.047Z,3.90
2022-10-14T10:23:57.501Z,3.97
2022-10-14T10:26:27.270Z,3.50
2022-10-14T10:28:58.450Z,3.47
2022-10-14T10:31:42.538Z,3.13
2022-10-14T10:34:38.154Z,3.87
2022-10-14T10:37:26.158Z,3.03
2022-10-14T10:40:09.885Z,3.70
2022-10-14T10:42:46.350Z,3.77
2022-10-14T10:45:36.371Z,3.13
2022-10-14T10:48:12.800Z,2.90
2022-10-14T10:50:48.504Z,2.83
2022-10-14T10:53:46.789Z,2.53
2022-10-14T10:56:26.069Z,2.53
2022-10-14T10:59:07.468Z,2.70
2022-10-14T11:01:44.770Z,2.47
2022-10-14T11:04:26.893Z,2.70
2022-10-14T11:07:27.164Z,3.10
2022-10-14T11:10:21.770Z,3.03
2022-10-14T11:12:59.645Z,3.00
2022-10-14T11:15:38.950Z,3.10
2022-10-14T11:18:14.338Z,3.10
2022-10-14T11:20:58.422Z,3.47
2022-10-14T11:23:59.807Z,3.03
2022-10-14T11:26:45.871Z,2.57
2022-10-14T11:29:30.706Z,2.20
2022-10-14T11:32:07.452Z,2.10
2022-10-14T11:34:43.964Z,1.80
2022-10-14T11:37:24.157Z,2.20
2022-10-14T11:39:58.322Z,2.10
2022-10-14T11:42:39.853Z,2.17
2022-10-14T11:45:25.536Z,1.97
2022-10-14T11:47:56.183Z,1.57
2022-10-14T11:50:30.318Z,1.80
2022-10-14T11:53:05.233Z,2.10
2022-10-14T11:55:39.180Z,1.73
2022-10-14T11:58:13.350Z,2.43
2022-10-14T12:00:45.063Z,1.70
2022-10-14T12:03:20.331Z,1.70
2022-10-14T12:05:59.319Z,1.63
2022-10-14T12:08:34.800Z,1.50
2022-10-14T12:11:08.063Z,1.50
2022-10-14T12:13:39.729Z,1.30
2022-10-14T12:16:17.773Z,1.50
2022-10-14T12:18:46.963Z,1.33
2022-10-14T12:21:22.783Z,1.37
2022-10-14T12:23:55.135Z,1.57
2022-10-14T12:26:43.205Z,1.73
2022-10-14T12:29:15.272Z,1.40
2022-10-14T12:31:43.041Z,1.40
2022-10-14T12:34:27.264Z,1.30
2022-10-14T12:36:56.329Z,1.30
2022-10-14T12:39:35.666Z,1.73
2022-10-14T12:42:06.780Z,1.33
2022-10-14T12:44:43.348Z,1.50
2022-10-14T12:47:21.162Z,1.50
2022-10-14T12:49:52.878Z,1.30
2022-10-14T12:52:26.688Z,1.70
2022-10-14T12:54:55.541Z,1.70
2022-10-14T12:57:29.618Z,2.03
2022-10-14T13:00:00.322Z,1.57
2022-10-14T13:02:33.473Z,2.00
2022-10-14T13:05:03.632Z,1.50
2022-10-14T13:07:41.442Z,1.90
2022-10-14T13:10:46.889Z,1.73
2022-10-14T13:14:07.132Z,1.60
2022-10-14T13:17:00.136Z,1.77
2022-10-14T13:19:46.723Z,1.70
2022-10-14T13:22:43.622Z,1.90
2022-10-14T13:25:17.814Z,1.80
2022-10-14T13:27:56.463Z,1.40
2022-10-14T13:30:33.917Z,1.77
2022-10-14T13:33:10.663Z,1.40
2022-10-14T13:35:48.863Z,1.93
2022-10-14T13:38:20.721Z,2.20
2022-10-14T13:40:51.317Z,1.70
2022-10-14T13:43:22.277Z,1.60
2022-10-14T13:45:53.965Z,1.83
2022-10-14T13:48:31.636Z,1.83
2022-10-14T13:51:41.612Z,1.60
2022-10-14T13:54:19.805Z,1.40
2022-10-14T14:02:39.459Z,1.40
2022-10-14T14:05:15.409Z,1.67
2022-10-14T14:08:30.199Z,1.30
2022-10-14T14:10:39.203Z,1.30
2022-10-14T14:13:14.959Z,1.40
2022-10-14T14:15:43.494Z,1.30
2022-10-14T14:18:38.196Z,1.20
2022-10-14T14:21:18.210Z,1.40
2022-10-14T14:23:54.150Z,1.40
2022-10-14T14:26:28.502Z,1.20
2022-10-14T14:28:56.259Z,1.40
2022-10-14T14:31:48.031Z,1.23
2022-10-14T14:34:17.963Z,1.47
2022-10-14T14:36:51.911Z,1.60
2022-10-14T14:39:24.518Z,1.70
2022-10-14T14:41:55.267Z,1.60
2022-10-14T14:44:26.389Z,1.73
2022-10-14T14:46:57.633Z,1.60
2022-10-14T14:49:28.899Z,1.40
2022-10-14T14:51:58.408Z,1.53
2022-10-14T14:54:28.681Z,1.80
2022-10-14T14:57:04.971Z,2.57
2022-10-14T14:59:36.439Z,2.70
2022-10-14T15:02:11.434Z,3.20
2022-10-14T15:04:39.221Z,3.53
2022-10-14T15:07:11.280Z,2.53
2022-10-14T15:09:43.095Z,3.43
2022-10-14T15:12:17.397Z,5.10
2022-10-14T15:14:48.235Z,3.20
2022-10-14T15:17:28.821Z,2.70
2022-10-14T15:19:57.705Z,2.30
2022-10-14T15:22:32.633Z,2.27
2022-10-14T15:25:02.746Z,2.20
2022-10-14T15:27:47.412Z,2.63
2022-10-14T15:30:34.508Z,1.80
2022-10-14T15:33:05.425Z,2.03
2022-10-14T15:35:34.597Z,2.40
2022-10-14T15:38:03.143Z,2.00
2022-10-14T15:40:32.827Z,2.03
2022-10-14T15:43:02.656Z,2.27
2022-10-14T15:45:30.403Z,2.50
2022-10-14T15:48:02.753Z,2.70
2022-10-14T15:50:30.684Z,2.80
2022-10-14T15:52:58.455Z,2.33
2022-10-14T15:55:28.175Z,2.83
2022-10-14T15:57:55.936Z,2.70
2022-10-14T16:00:26.064Z,2.53
2022-10-14T16:02:58.242Z,2.90
2022-10-14T16:05:26.845Z,2.90
2022-10-14T16:07:54.589Z,3.20
2022-10-14T16:10:24.063Z,3.10
2022-10-14T16:12:52.364Z,3.37
2022-10-14T16:15:36.461Z,3.00
2022-10-14T16:18:04.530Z,3.30
2022-10-14T16:20:32.950Z,3.40
2022-10-14T16:23:04.231Z,3.93
2022-10-14T16:25:36.084Z,4.40
2022-10-14T16:28:07.538Z,5.03
2022-10-14T16:30:41.090Z,3.73
2022-10-14T16:33:09.057Z,4.20
2022-10-14T16:35:36.795Z,4.17
2022-10-14T16:38:04.582Z,5.47
2022-10-14T16:40:36.576Z,5.57
2022-10-14T16:43:04.988Z,7.00
2022-10-14T16:45:32.809Z,6.20
2022-10-14T16:48:02.176Z,4.90
2022-10-14T16:50:30.072Z,5.30
2022-10-14T16:53:15.413Z,5.03
2022-10-14T16:55:43.176Z,4.27
2022-10-14T16:58:10.916Z,4.10
2022-10-14T17:00:38.627Z,3.37
2022-10-14T17:03:07.727Z,3.87
2022-10-14T17:05:35.435Z,3.80
2022-10-14T17:08:03.199Z,5.73
2022-10-14T17:10:30.855Z,4.93
2022-10-14T17:12:58.551Z,4.00
2022-10-14T17:15:26.285Z,4.37
2022-10-14T17:17:53.991Z,3.60
2022-10-14T17:20:23.043Z,4.03
2022-10-14T17:22:50.797Z,3.90
2022-10-14T17:25:19.997Z,4.30
2022-10-14T17:27:47.862Z,4.73
2022-10-14T17:30:15.758Z,6.30
2022-10-14T17:32:43.740Z,5.93
2022-10-14T17:35:14.474Z,6.30
2022-10-14T17:37:45.251Z,7.00
2022-10-14T17:40:14.241Z,7.60
2022-10-14T17:42:42.600Z,4.47
2022-10-14T17:45:12.107Z,4.27
2022-10-14T17:47:39.826Z,4.10
2022-10-14T17:50:08.907Z,4.20
2022-10-14T17:52:36.705Z,4.60
2022-10-14T17:55:06.754Z,4.60
2022-10-14T17:57:34.593Z,3.80
2022-10-14T18:00:02.393Z,4.40
2022-10-14T18:02:30.158Z,4.43
2022-10-14T18:04:57.968Z,4.50
2022-10-14T18:07:25.929Z,4.40
2022-10-14T18:09:53.693Z,5.40
2022-10-14T18:12:22.779Z,5.40
2022-10-14T18:14:50.556Z,5.03
2022-10-14T18:17:18.398Z,4.93
2022-10-14T18:19:51.820Z,5.83
2022-10-14T18:22:20.046Z,4.57
2022-10-14T18:24:47.827Z,5.67
2022-10-14T18:27:15.577Z,4.80
2022-10-14T18:29:44.706Z,7.07
2022-10-14T18:32:12.460Z,7.00
2022-10-14T18:34:40.161Z,6.60
2022-10-14T18:37:07.983Z,5.80
2022-10-14T18:39:35.723Z,5.70
2022-10-14T18:42:03.565Z,5.40
2022-10-14T18:44:31.303Z,5.37
2022-10-14T18:47:00.425Z,5.57
2022-10-14T18:49:28.193Z,5.70
2022-10-14T18:51:55.947Z,5.43
2022-10-14T18:54:24.791Z,5.90
2022-10-14T18:56:52.917Z,5.97
2022-10-14T18:59:22.961Z,5.63
2022-10-14T19:01:52.809Z,5.53
2022-10-14T19:04:23.999Z,5.40
2022-10-14T19:06:51.731Z,6.07
2022-10-14T19:09:22.226Z,7.03
2022-10-14T19:11:51.796Z,8.50
2022-10-14T19:14:21.264Z,7.53
2022-10-14T19:16:49.691Z,6.40
2022-10-14T19:19:20.292Z,6.10
2022-10-14T19:21:54.065Z,6.00
2022-10-14T19:24:21.872Z,6.00
2022-10-14T19:26:49.988Z,6.03
2022-10-14T19:29:18.109Z,6.30
2022-10-14T19:31:46.333Z,6.20
2022-10-14T19:34:16.653Z,5.60
2022-10-14T19:36:45.534Z,6.80
2022-10-14T19:39:17.253Z,6.23
2022-10-14T19:41:46.596Z,5.77
2022-10-14T19:44:15.505Z,5.80
2022-10-14T19:46:43.976Z,6.03
2022-10-14T19:49:13.455Z,6.07
2022-10-14T19:51:41.234Z,5.67
2022-10-14T19:54:09.004Z,6.13
2022-10-14T19:56:38.158Z,6.10
2022-10-14T19:59:06.002Z,5.77
2022-10-14T20:01:33.906Z,5.83
2022-10-14T20:04:03.125Z,5.33
2022-10-14T20:06:33.658Z,5.30
2022-10-14T20:09:01.433Z,6.00
2022-10-14T20:11:29.481Z,5.53
2022-10-14T20:13:58.614Z,5.43
2022-10-14T20:16:26.627Z,5.37
2022-10-14T20:18:54.413Z,5.17
2022-10-14T20:21:22.150Z,5.63
2022-10-14T20:23:50.934Z,5.50
2022-10-14T20:26:20.882Z,6.23
2022-10-14T20:28:49.889Z,5.13
2022-10-14T20:31:20.454Z,5.33
2022-10-14T20:33:48.479Z,5.47
2022-10-14T20:36:18.477Z,5.80
2022-10-14T20:38:47.165Z,6.03
2022-10-14T20:41:17.599Z,8.10
2022-10-14T20:43:46.632Z,9.00
2022-10-14T20:46:14.594Z,9.67
2022-10-14T20:48:43.839Z,8.23
2022-10-14T20:51:13.642Z,6.00
2022-10-14T20:56:14.699Z,6.53
2022-10-14T20:58:42.547Z,5.83
2022-10-14T21:01:12.144Z,5.40
2022-10-14T21:03:40.502Z,5.20
2022-10-14T21:06:11.527Z,4.97
2022-10-14T21:08:39.947Z,5.13
2022-10-14T21:11:13.690Z,4.90
2022-10-14T21:13:44.855Z,4.97
2022-10-14T21:16:20.391Z,4.80
2022-10-14T21:18:49.692Z,5.30
2022-10-14T21:21:21.817Z,5.50
2022-10-14T21:23:49.762Z,5.23
2022-10-14T21:26:17.528Z,4.97
2022-10-14T21:28:45.575Z,4.97
2022-10-14T21:31:17.558Z,5.40
2022-10-14T21:33:47.134Z,4.97
2022-10-14T21:36:16.241Z,5.30
2022-10-14T21:38:45.757Z,4.77
2022-10-14T21:41:13.765Z,5.10
2022-10-14T21:43:41.966Z,5.10
2022-10-14T21:46:12.269Z,4.80
2022-10-14T21:48:41.014Z,5.63
2022-10-14T21:51:10.590Z,5.30
2022-10-14T21:53:39.033Z,5.83
2022-10-14T21:56:09.122Z,6.83
2022-10-14T21:58:37.340Z,6.43
2022-10-14T22:01:07.025Z,6.30
2022-10-14T22:03:35.283Z,5.77
2022-10-14T22:08:40.233Z,5.97
2022-10-14T22:11:16.575Z,6.37
2022-10-14T22:13:44.354Z,5.30
2022-10-14T22:16:13.556Z,6.10
2022-10-14T22:18:43.481Z,5.07
2022-10-14T22:21:11.932Z,4.70
2022-10-14T22:23:40.366Z,4.17
2022-10-14T22:26:11.935Z,4.87
2022-10-14T22:28:40.063Z,5.30
2022-10-14T22:31:08.126Z,4.80
2022-10-14T22:33:36.935Z,5.00
2022-10-14T22:36:09.006Z,4.70
2022-10-14T22:38:37.375Z,5.73
2022-10-14T22:41:07.069Z,6.10
2022-10-14T22:43:37.005Z,5.80
2022-10-14T22:46:07.995Z,6.07
2022-10-14T22:48:36.563Z,5.60
2022-10-14T22:51:05.314Z,5.93
2022-10-14T22:53:33.643Z,6.23
2022-10-14T22:56:01.827Z,5.50
2022-10-14T22:58:29.958Z,5.90
2022-10-14T23:01:06.513Z,5.83
2022-10-14T23:03:34.671Z,6.00
2022-10-14T23:06:03.778Z,5.63
2022-10-14T23:08:31.909Z,6.10
2022-10-14T23:11:00.024Z,6.17
2022-10-14T23:13:28.189Z,5.67
2022-10-14T23:15:56.963Z,4.93
2022-10-14T23:18:27.192Z,5.73
2022-10-14T23:20:55.020Z,5.80
2022-10-14T23:23:22.911Z,5.70
2022-10-14T23:25:50.710Z,6.80
2022-10-14T23:28:18.486Z,6.27
2022-10-14T23:30:46.215Z,6.57
2022-10-14T23:33:13.959Z,6.27
2022-10-14T23:35:43.141Z,5.93
2022-10-14T23:38:13.367Z,6.47
2022-10-14T23:40:41.093Z,6.27
2022-10-14T23:43:08.905Z,6.30
2022-10-14T23:45:36.635Z,5.80
2022-10-14T23:48:04.560Z,6.27
2022-10-14T23:50:32.300Z,6.10
2022-10-14T23:53:01.317Z,6.07
2022-10-14T23:55:29.010Z,6.40
2022-10-14T23:57:56.738Z,6.03
